sensor_id;sensor_type;location;lat;lon;timestamp;pressure;altitude;pressure_sealevel;temperature;humidity
11856;BME280;5987;53.140;8.904;2023-03-23T00:01:51;100266.34;;;9.16;100.00
11856;BME280;5987;53.140;8.904;2023-03-23T00:04:55;100272.44;;;9.16;100.00
11856;BME280;5987;53.140;8.904;2023-03-23T00:07:58;100260.31;;;9.14;100.00
11856;BME280;5987;53.140;8.904;2023-03-23T00:11:05;100249.16;;;9.08;100.00
11856;BME280;5987;53.140;8.904;2023-03-23T00:14:10;100256.03;;;9.11;100.00
11856;BME280;5987;53.140;8.904;2023-03-23T00:17:14;100270.09;;;9.08;100.00
11856;BME280;5987;53.140;8.904;2023-03-23T00:20:17;100260.44;;;9.10;100.00
11856;BME280;5987;53.140;8.904;2023-03-23T00:23:22;100266.56;;;9.09;100.00
11856;BME280;5987;53.140;8.904;2023-03-23T00:26:27;100261.22;;;9.13;100.00
11856;BME280;5987;53.140;8.904;2023-03-23T00:29:30;100245.50;;;9.13;100.00
11856;BME280;5987;53.140;8.904;2023-03-23T00:32:33;100249.06;;;9.12;100.00
11856;BME280;5987;53.140;8.904;2023-03-23T00:35:35;100244.53;;;9.15;100.00
11856;BME280;5987;53.140;8.904;2023-03-23T00:38:40;100228.09;;;9.12;100.00
11856;BME280;5987;53.140;8.904;2023-03-23T00:41:45;100227.91;;;9.16;100.00
11856;BME280;5987;53.140;8.904;2023-03-23T00:44:48;100227.84;;;9.18;100.00
11856;BME280;5987;53.140;8.904;2023-03-23T00:47:51;100229.56;;;9.19;100.00
11856;BME280;5987;53.140;8.904;2023-03-23T00:50:59;100225.22;;;9.18;100.00
11856;BME280;5987;53.140;8.904;2023-03-23T00:54:07;100223.44;;;9.18;100.00
11856;BME280;5987;53.140;8.904;2023-03-23T00:57:11;100207.69;;;9.20;100.00
11856;BME280;5987;53.140;8.904;2023-03-23T01:00:15;100207.69;;;9.20;100.00
11856;BME280;5987;53.140;8.904;2023-03-23T01:03:17;100211.09;;;9.22;100.00
11856;BME280;5987;53.140;8.904;2023-03-23T01:06:20;100204.06;;;9.22;100.00
11856;BME280;5987;53.140;8.904;2023-03-23T01:09:23;100191.97;;;9.20;100.00
11856;BME280;5987;53.140;8.904;2023-03-23T01:12:26;100182.34;;;9.20;100.00
11856;BME280;5987;53.140;8.904;2023-03-23T01:15:29;100186.66;;;9.21;100.00
11856;BME280;5987;53.140;8.904;2023-03-23T01:18:32;100190.13;;;9.22;100.00
11856;BME280;5987;53.140;8.904;2023-03-23T01:21:35;100183.09;;;9.22;100.00
11856;BME280;5987;53.140;8.904;2023-03-23T01:24:37;100183.09;;;9.22;100.00
11856;BME280;5987;53.140;8.904;2023-03-23T01:27:41;100186.59;;;9.23;100.00
11856;BME280;5987;53.140;8.904;2023-03-23T01:30:44;100186.53;;;9.24;100.00
11856;BME280;5987;53.140;8.904;2023-03-23T01:33:48;100195.00;;;9.31;100.00
11856;BME280;5987;53.140;8.904;2023-03-23T01:36:51;100190.81;;;9.27;100.00
11856;BME280;5987;53.140;8.904;2023-03-23T01:39:54;100183.34;;;9.38;100.00
11856;BME280;5987;53.140;8.904;2023-03-23T01:42:58;100175.16;;;9.25;100.00
11856;BME280;5987;53.140;8.904;2023-03-23T01:46:01;100168.25;;;9.23;100.00
11856;BME280;5987;53.140;8.904;2023-03-23T01:49:07;100166.56;;;9.22;100.00
11856;BME280;5987;53.140;8.904;2023-03-23T01:52:16;100164.91;;;9.19;100.00
11856;BME280;5987;53.140;8.904;2023-03-23T01:55:20;100163.88;;;9.23;100.00
11856;BME280;5987;53.140;8.904;2023-03-23T01:58:31;100161.19;;;9.25;100.00
11856;BME280;5987;53.140;8.904;2023-03-23T02:01:35;100161.19;;;9.25;100.00
11856;BME280;5987;53.140;8.904;2023-03-23T02:04:40;100161.25;;;9.23;100.00
11856;BME280;5987;53.140;8.904;2023-03-23T02:07:45;100166.28;;;9.28;100.00
11856;BME280;5987;53.140;8.904;2023-03-23T02:10:48;100151.50;;;9.27;100.00
11856;BME280;5987;53.140;8.904;2023-03-23T02:13:53;100146.25;;;9.27;100.00
11856;BME280;5987;53.140;8.904;2023-03-23T02:17:02;100138.41;;;9.27;100.00
11856;BME280;5987;53.140;8.904;2023-03-23T02:20:18;100139.25;;;9.27;100.00
11856;BME280;5987;53.140;8.904;2023-03-23T02:24:14;100125.16;;;9.30;100.00
11856;BME280;5987;53.140;8.904;2023-03-23T02:27:59;100115.47;;;9.32;100.00
11856;BME280;5987;53.140;8.904;2023-03-23T02:31:34;100112.75;;;9.35;100.00
11856;BME280;5987;53.140;8.904;2023-03-23T02:34:47;100110.13;;;9.35;100.00
11856;BME280;5987;53.140;8.904;2023-03-23T02:37:58;100100.47;;;9.36;100.00
11856;BME280;5987;53.140;8.904;2023-03-23T02:41:03;100105.84;;;9.33;100.00
11856;BME280;5987;53.140;8.904;2023-03-23T02:44:08;100097.06;;;9.34;100.00
11856;BME280;5987;53.140;8.904;2023-03-23T02:47:17;100116.19;;;9.36;100.00
11856;BME280;5987;53.140;8.904;2023-03-23T02:50:26;100094.41;;;9.35;100.00
11856;BME280;5987;53.140;8.904;2023-03-23T02:53:33;100087.31;;;9.37;100.00
11856;BME280;5987;53.140;8.904;2023-03-23T02:56:38;100067.91;;;9.41;100.00
11856;BME280;5987;53.140;8.904;2023-03-23T02:59:41;100065.44;;;9.38;100.00
11856;BME280;5987;53.140;8.904;2023-03-23T03:02:47;100040.00;;;9.40;100.00
11856;BME280;5987;53.140;8.904;2023-03-23T03:06:07;100056.63;;;9.39;100.00
11856;BME280;5987;53.140;8.904;2023-03-23T03:09:19;100068.06;;;9.38;100.00
11856;BME280;5987;53.140;8.904;2023-03-23T03:12:38;100046.28;;;9.36;100.00
11856;BME280;5987;53.140;8.904;2023-03-23T03:15:53;100036.63;;;9.38;100.00
11856;BME280;5987;53.140;8.904;2023-03-23T03:19:03;100027.88;;;9.38;100.00
11856;BME280;5987;53.140;8.904;2023-03-23T03:22:09;100038.81;;;9.48;100.00
11856;BME280;5987;53.140;8.904;2023-03-23T03:25:14;100028.31;;;9.48;100.00
11856;BME280;5987;53.140;8.904;2023-03-23T03:28:19;100021.13;;;9.53;100.00
11856;BME280;5987;53.140;8.904;2023-03-23T03:31:29;100011.41;;;9.55;100.00
11856;BME280;5987;53.140;8.904;2023-03-23T03:34:33;100010.41;;;9.57;100.00
11856;BME280;5987;53.140;8.904;2023-03-23T03:37:39;100037.50;;;9.58;100.00
11856;BME280;5987;53.140;8.904;2023-03-23T03:40:41;100011.13;;;9.61;100.00
11856;BME280;5987;53.140;8.904;2023-03-23T03:43:44;100014.75;;;9.58;100.00
11856;BME280;5987;53.140;8.904;2023-03-23T03:46:46;100021.63;;;9.61;100.00
11856;BME280;5987;53.140;8.904;2023-03-23T03:49:48;100032.09;;;9.61;100.00
11856;BME280;5987;53.140;8.904;2023-03-23T03:52:52;100036.53;;;9.59;100.00
11856;BME280;5987;53.140;8.904;2023-03-23T03:55:55;100035.78;;;9.57;100.00
11856;BME280;5987;53.140;8.904;2023-03-23T03:59:00;100035.63;;;9.60;100.00
11856;BME280;5987;53.140;8.904;2023-03-23T04:02:03;100046.13;;;9.60;100.00
11856;BME280;5987;53.140;8.904;2023-03-23T04:05:07;100031.19;;;9.62;100.00
11856;BME280;5987;53.140;8.904;2023-03-23T04:08:11;100041.59;;;9.64;100.00
11856;BME280;5987;53.140;8.904;2023-03-23T04:11:15;100048.53;;;9.65;100.00
11856;BME280;5987;53.140;8.904;2023-03-23T04:14:17;100037.50;;;9.58;100.00
11856;BME280;5987;53.140;8.904;2023-03-23T04:17:20;100042.81;;;9.56;100.00
11856;BME280;5987;53.140;8.904;2023-03-23T04:20:23;100046.13;;;9.60;100.00
11856;BME280;5987;53.140;8.904;2023-03-23T04:23:30;100036.63;;;9.57;100.00
11856;BME280;5987;53.140;8.904;2023-03-23T04:26:34;100030.41;;;9.60;100.00
11856;BME280;5987;53.140;8.904;2023-03-23T04:29:37;100035.94;;;9.54;100.00
11856;BME280;5987;53.140;8.904;2023-03-23T04:32:40;100031.31;;;9.59;100.00
11856;BME280;5987;53.140;8.904;2023-03-23T04:35:43;100031.22;;;9.60;100.00
11856;BME280;5987;53.140;8.904;2023-03-23T04:38:48;100044.34;;;9.60;100.00
11856;BME280;5987;53.140;8.904;2023-03-23T04:41:55;100038.31;;;9.58;100.00
11856;BME280;5987;53.140;8.904;2023-03-23T04:45:03;100038.41;;;9.57;100.00
11856;BME280;5987;53.140;8.904;2023-03-23T04:48:07;100032.09;;;9.61;100.00
11856;BME280;5987;53.140;8.904;2023-03-23T04:51:11;100031.81;;;9.67;100.00
11856;BME280;5987;53.140;8.904;2023-03-23T04:54:16;100017.78;;;9.68;100.00
11856;BME280;5987;53.140;8.904;2023-03-23T04:57:18;100012.53;;;9.68;100.00
11856;BME280;5987;53.140;8.904;2023-03-23T05:00:21;100003.03;;;9.66;100.00
11856;BME280;5987;53.140;8.904;2023-03-23T05:03:23;100018.38;;;9.75;100.00
11856;BME280;5987;53.140;8.904;2023-03-23T05:06:26;100019.19;;;9.75;100.00
11856;BME280;5987;53.140;8.904;2023-03-23T05:09:29;100024.59;;;9.72;100.00
11856;BME280;5987;53.140;8.904;2023-03-23T05:12:32;100022.88;;;9.71;100.00
11856;BME280;5987;53.140;8.904;2023-03-23T05:15:34;100021.06;;;9.73;100.00
11856;BME280;5987;53.140;8.904;2023-03-23T05:18:37;100024.16;;;9.82;100.00
11856;BME280;5987;53.140;8.904;2023-03-23T05:21:39;100019.19;;;9.75;100.00
11856;BME280;5987;53.140;8.904;2023-03-23T05:24:44;100024.28;;;9.78;100.00
11856;BME280;5987;53.140;8.904;2023-03-23T05:27:47;100031.25;;;9.79;100.00
11856;BME280;5987;53.140;8.904;2023-03-23T05:30:53;100025.84;;;9.83;100.00
11856;BME280;5987;53.140;8.904;2023-03-23T05:33:56;100016.78;;;9.90;100.00
11856;BME280;5987;53.140;8.904;2023-03-23T05:37:00;100014.22;;;9.88;100.00
11856;BME280;5987;53.140;8.904;2023-03-23T05:40:05;99999.22;;;9.92;100.00
11856;BME280;5987;53.140;8.904;2023-03-23T05:43:08;99996.44;;;9.95;100.00
11856;BME280;5987;53.140;8.904;2023-03-23T05:46:11;99990.69;;;9.87;100.00
11856;BME280;5987;53.140;8.904;2023-03-23T05:49:14;99995.31;;;9.82;100.00
11856;BME280;5987;53.140;8.904;2023-03-23T05:52:17;99990.28;;;9.77;100.00
11856;BME280;5987;53.140;8.904;2023-03-23T05:55:21;100007.66;;;9.79;100.00
11856;BME280;5987;53.140;8.904;2023-03-23T05:58:24;100012.41;;;9.90;100.00
11856;BME280;5987;53.140;8.904;2023-03-23T06:01:26;100012.34;;;10.09;100.00
11856;BME280;5987;53.140;8.904;2023-03-23T06:04:29;100024.00;;;10.04;100.00
11856;BME280;5987;53.140;8.904;2023-03-23T06:07:34;100016.34;;;9.99;100.00
11856;BME280;5987;53.140;8.904;2023-03-23T06:10:39;100018.81;;;10.02;100.00
11856;BME280;5987;53.140;8.904;2023-03-23T06:13:41;100024.28;;;9.98;100.00
11856;BME280;5987;53.140;8.904;2023-03-23T06:16:44;100020.44;;;10.05;100.00
11856;BME280;5987;53.140;8.904;2023-03-23T06:19:46;100011.81;;;10.03;100.00
11856;BME280;5987;53.140;8.904;2023-03-23T06:22:51;100015.44;;;10.00;100.00
11856;BME280;5987;53.140;8.904;2023-03-23T06:25:58;100019.69;;;10.03;100.00
11856;BME280;5987;53.140;8.904;2023-03-23T06:29:01;100020.84;;;10.15;100.00
11856;BME280;5987;53.140;8.904;2023-03-23T06:32:05;100018.53;;;10.08;100.00
11856;BME280;5987;53.140;8.904;2023-03-23T06:35:10;100028.41;;;10.21;100.00
11856;BME280;5987;53.140;8.904;2023-03-23T06:38:12;100016.53;;;10.13;100.00
11856;BME280;5987;53.140;8.904;2023-03-23T06:41:16;100025.88;;;10.19;100.00
11856;BME280;5987;53.140;8.904;2023-03-23T06:44:20;100030.78;;;10.27;100.00
11856;BME280;5987;53.140;8.904;2023-03-23T06:47:23;100028.34;;;10.41;100.00
11856;BME280;5987;53.140;8.904;2023-03-23T06:50:25;100033.28;;;10.47;100.00
11856;BME280;5987;53.140;8.904;2023-03-23T06:53:28;100030.53;;;10.51;100.00
11856;BME280;5987;53.140;8.904;2023-03-23T06:56:32;100025.88;;;10.56;100.00
11856;BME280;5987;53.140;8.904;2023-03-23T06:59:35;100039.94;;;10.55;100.00
11856;BME280;5987;53.140;8.904;2023-03-23T07:02:37;100028.34;;;10.59;100.00
11856;BME280;5987;53.140;8.904;2023-03-23T07:05:40;100035.38;;;10.58;100.00
11856;BME280;5987;53.140;8.904;2023-03-23T07:08:42;100039.47;;;10.64;100.00
11856;BME280;5987;53.140;8.904;2023-03-23T07:11:46;100040.03;;;10.71;100.00
11856;BME280;5987;53.140;8.904;2023-03-23T07:14:49;100060.16;;;10.70;100.00
11856;BME280;5987;53.140;8.904;2023-03-23T07:17:51;100053.38;;;10.66;100.00
11856;BME280;5987;53.140;8.904;2023-03-23T07:20:55;100070.81;;;10.50;100.00
11856;BME280;5987;53.140;8.904;2023-03-23T07:23:58;100088.13;;;10.35;100.00
11856;BME280;5987;53.140;8.904;2023-03-23T07:27:01;100092.75;;;10.29;100.00
11856;BME280;5987;53.140;8.904;2023-03-23T07:30:06;100107.91;;;10.23;100.00
11856;BME280;5987;53.140;8.904;2023-03-23T07:33:09;100135.00;;;10.04;100.00
11856;BME280;5987;53.140;8.904;2023-03-23T07:36:12;100142.31;;;9.58;100.00
11856;BME280;5987;53.140;8.904;2023-03-23T07:39:15;100145.69;;;9.41;100.00
11856;BME280;5987;53.140;8.904;2023-03-23T07:42:18;100124.06;;;9.36;100.00
11856;BME280;5987;53.140;8.904;2023-03-23T07:45:21;100124.19;;;9.33;100.00
11856;BME280;5987;53.140;8.904;2023-03-23T07:48:24;100139.94;;;9.52;100.00
11856;BME280;5987;53.140;8.904;2023-03-23T07:51:26;100126.16;;;9.48;100.00
11856;BME280;5987;53.140;8.904;2023-03-23T07:54:29;100107.34;;;9.38;100.00
11856;BME280;5987;53.140;8.904;2023-03-23T07:57:33;100106.69;;;9.33;100.00
11856;BME280;5987;53.140;8.904;2023-03-23T08:00:37;100123.59;;;9.47;100.00
11856;BME280;5987;53.140;8.904;2023-03-23T08:03:41;100126.31;;;9.43;100.00
11856;BME280;5987;53.140;8.904;2023-03-23T08:06:44;100131.63;;;9.42;100.00
11856;BME280;5987;53.140;8.904;2023-03-23T08:09:48;100135.13;;;9.42;100.00
11856;BME280;5987;53.140;8.904;2023-03-23T08:12:55;100139.56;;;9.40;100.00
11856;BME280;5987;53.140;8.904;2023-03-23T08:15:57;100143.22;;;9.36;100.00
11856;BME280;5987;53.140;8.904;2023-03-23T08:19:00;100147.56;;;9.37;100.00
11856;BME280;5987;53.140;8.904;2023-03-23T08:22:04;100150.13;;;9.39;100.00
11856;BME280;5987;53.140;8.904;2023-03-23T08:25:09;100151.81;;;9.40;100.00
11856;BME280;5987;53.140;8.904;2023-03-23T08:28:14;100165.97;;;9.56;100.00
11856;BME280;5987;53.140;8.904;2023-03-23T08:31:16;100155.50;;;9.56;100.00
11856;BME280;5987;53.140;8.904;2023-03-23T08:34:19;100162.03;;;9.67;100.00
11856;BME280;5987;53.140;8.904;2023-03-23T08:37:22;100167.47;;;9.62;100.00
11856;BME280;5987;53.140;8.904;2023-03-23T08:40:26;100166.16;;;9.72;100.00
11856;BME280;5987;53.140;8.904;2023-03-23T08:43:31;100165.03;;;9.78;100.00
11856;BME280;5987;53.140;8.904;2023-03-23T08:46:34;100177.53;;;9.92;100.00
11856;BME280;5987;53.140;8.904;2023-03-23T08:49:37;100177.59;;;9.90;100.00
11856;BME280;5987;53.140;8.904;2023-03-23T08:52:39;100170.97;;;9.82;100.00
11856;BME280;5987;53.140;8.904;2023-03-23T08:55:42;100170.97;;;9.82;100.00
11856;BME280;5987;53.140;8.904;2023-03-23T08:58:46;100164.56;;;9.89;100.00
11856;BME280;5987;53.140;8.904;2023-03-23T09:01:49;100165.47;;;9.88;100.00
11856;BME280;5987;53.140;8.904;2023-03-23T09:04:52;100163.06;;;10.02;100.00
11856;BME280;5987;53.140;8.904;2023-03-23T09:07:57;100154.53;;;9.97;100.00
11856;BME280;5987;53.140;8.904;2023-03-23T09:11:00;100162.22;;;10.02;100.00
11856;BME280;5987;53.140;8.904;2023-03-23T09:14:06;100163.78;;;10.06;100.00
11856;BME280;5987;53.140;8.904;2023-03-23T09:17:10;100169.28;;;10.00;100.00
11856;BME280;5987;53.140;8.904;2023-03-23T09:20:15;100175.13;;;10.06;100.00
11856;BME280;5987;53.140;8.904;2023-03-23T09:23:20;100183.00;;;10.06;100.00
11856;BME280;5987;53.140;8.904;2023-03-23T09:26:23;100178.94;;;9.99;100.00
11856;BME280;5987;53.140;8.904;2023-03-23T09:29:27;100180.66;;;10.19;100.00
11856;BME280;5987;53.140;8.904;2023-03-23T09:32:30;100191.66;;;10.27;100.00
11856;BME280;5987;53.140;8.904;2023-03-23T09:35:35;100197.44;;;10.36;100.00
11856;BME280;5987;53.140;8.904;2023-03-23T09:38:38;100195.72;;;10.54;100.00
11856;BME280;5987;53.140;8.904;2023-03-23T09:41:59;100193.16;;;10.71;100.00
11856;BME280;5987;53.140;8.904;2023-03-23T09:45:17;100193.88;;;10.92;100.00
11856;BME280;5987;53.140;8.904;2023-03-23T09:48:46;100192.63;;;11.19;100.00
11856;BME280;5987;53.140;8.904;2023-03-23T09:51:55;100192.13;;;10.93;100.00
11856;BME280;5987;53.140;8.904;2023-03-23T09:54:59;100200.94;;;10.92;100.00
11856;BME280;5987;53.140;8.904;2023-03-23T09:58:12;100197.06;;;11.16;100.00
11856;BME280;5987;53.140;8.904;2023-03-23T10:01:26;100194.94;;;11.07;100.00
11856;BME280;5987;53.140;8.904;2023-03-23T10:04:37;100195.03;;;11.41;100.00
11856;BME280;5987;53.140;8.904;2023-03-23T10:07:41;100193.41;;;11.38;100.00
11856;BME280;5987;53.140;8.904;2023-03-23T10:10:59;100193.94;;;11.45;100.00
11856;BME280;5987;53.140;8.904;2023-03-23T10:14:35;100200.81;;;11.65;100.00
11856;BME280;5987;53.140;8.904;2023-03-23T10:17:51;100214.94;;;11.62;100.00
11856;BME280;5987;53.140;8.904;2023-03-23T10:20:58;100225.78;;;11.56;100.00
11856;BME280;5987;53.140;8.904;2023-03-23T10:24:02;100226.50;;;11.93;100.00
11856;BME280;5987;53.140;8.904;2023-03-23T10:27:21;100217.16;;;11.88;100.00
11856;BME280;5987;53.140;8.904;2023-03-23T10:30:30;100226.22;;;11.82;100.00
11856;BME280;5987;53.140;8.904;2023-03-23T10:33:40;100225.31;;;11.65;100.00
11856;BME280;5987;53.140;8.904;2023-03-23T10:36:59;100225.78;;;11.39;100.00
11856;BME280;5987;53.140;8.904;2023-03-23T10:40:06;100230.78;;;11.43;100.00
11856;BME280;5987;53.140;8.904;2023-03-23T10:43:15;100218.41;;;11.63;100.00
11856;BME280;5987;53.140;8.904;2023-03-23T10:46:31;100221.50;;;11.89;100.00
11856;BME280;5987;53.140;8.904;2023-03-23T10:49:43;100220.13;;;12.15;100.00
11856;BME280;5987;53.140;8.904;2023-03-23T10:52:51;100218.41;;;11.80;100.00
11856;BME280;5987;53.140;8.904;2023-03-23T10:55:54;100222.84;;;12.13;100.00
11856;BME280;5987;53.140;8.904;2023-03-23T10:58:57;100225.22;;;11.84;100.00
11856;BME280;5987;53.140;8.904;2023-03-23T11:02:14;100223.00;;;11.94;100.00
11856;BME280;5987;53.140;8.904;2023-03-23T11:05:21;100219.31;;;12.14;100.00
11856;BME280;5987;53.140;8.904;2023-03-23T11:08:29;100223.03;;;11.93;100.00
11856;BME280;5987;53.140;8.904;2023-03-23T11:11:39;100225.53;;;11.61;100.00
11856;BME280;5987;53.140;8.904;2023-03-23T11:14:44;100221.69;;;11.68;100.00
11856;BME280;5987;53.140;8.904;2023-03-23T11:17:56;100231.88;;;11.74;100.00
11856;BME280;5987;53.140;8.904;2023-03-23T11:21:03;100222.31;;;11.73;100.00
11856;BME280;5987;53.140;8.904;2023-03-23T11:24:08;100231.19;;;11.71;100.00
11856;BME280;5987;53.140;8.904;2023-03-23T11:27:12;100244.81;;;11.79;100.00
11856;BME280;5987;53.140;8.904;2023-03-23T11:30:24;100249.53;;;11.72;100.00
11856;BME280;5987;53.140;8.904;2023-03-23T11:33:47;100255.31;;;11.79;100.00
11856;BME280;5987;53.140;8.904;2023-03-23T11:36:57;100250.59;;;11.68;100.00
11856;BME280;5987;53.140;8.904;2023-03-23T11:40:13;100246.59;;;11.61;100.00
11856;BME280;5987;53.140;8.904;2023-03-23T11:43:21;100253.38;;;11.82;100.00
11856;BME280;5987;53.140;8.904;2023-03-23T11:46:35;100247.31;;;12.15;100.00
11856;BME280;5987;53.140;8.904;2023-03-23T11:49:47;100250.50;;;12.54;100.00
11856;BME280;5987;53.140;8.904;2023-03-23T11:53:09;100247.91;;;12.70;100.00
11856;BME280;5987;53.140;8.904;2023-03-23T11:56:23;100251.81;;;12.79;100.00
11856;BME280;5987;53.140;8.904;2023-03-23T11:59:29;100241.03;;;12.67;100.00
11856;BME280;5987;53.140;8.904;2023-03-23T12:03:05;100229.88;;;12.62;100.00
11856;BME280;5987;53.140;8.904;2023-03-23T12:06:13;100231.75;;;12.76;100.00
11856;BME280;5987;53.140;8.904;2023-03-23T12:09:43;100233.09;;;12.51;100.00
11856;BME280;5987;53.140;8.904;2023-03-23T12:13:02;100233.47;;;12.77;100.00
11856;BME280;5987;53.140;8.904;2023-03-23T12:16:20;100228.94;;;12.79;100.00
11856;BME280;5987;53.140;8.904;2023-03-23T12:19:38;100234.97;;;12.97;100.00
11856;BME280;5987;53.140;8.904;2023-03-23T12:22:59;100244.59;;;12.66;100.00
11856;BME280;5987;53.140;8.904;2023-03-23T12:26:22;100227.25;;;12.46;100.00
11856;BME280;5987;53.140;8.904;2023-03-23T12:29:45;100217.22;;;12.37;100.00
11856;BME280;5987;53.140;8.904;2023-03-23T12:33:17;100219.13;;;12.17;100.00
11856;BME280;5987;53.140;8.904;2023-03-23T12:36:36;100222.91;;;12.61;100.00
11856;BME280;5987;53.140;8.904;2023-03-23T12:40:15;100215.34;;;12.39;100.00
11856;BME280;5987;53.140;8.904;2023-03-23T12:43:35;100232.00;;;12.56;100.00
11856;BME280;5987;53.140;8.904;2023-03-23T12:47:10;100223.94;;;12.59;100.00
11856;BME280;5987;53.140;8.904;2023-03-23T12:50:24;100231.91;;;12.41;100.00
11856;BME280;5987;53.140;8.904;2023-03-23T12:53:34;100239.06;;;12.71;100.00
11856;BME280;5987;53.140;8.904;2023-03-23T12:56:53;100233.88;;;12.85;100.00
11856;BME280;5987;53.140;8.904;2023-03-23T13:00:06;100227.66;;;13.02;100.00
11856;BME280;5987;53.140;8.904;2023-03-23T13:03:22;100226.09;;;13.14;100.00
11856;BME280;5987;53.140;8.904;2023-03-23T13:06:33;100228.44;;;13.65;100.00
11856;BME280;5987;53.140;8.904;2023-03-23T13:09:49;100216.22;;;13.64;100.00
11856;BME280;5987;53.140;8.904;2023-03-23T13:12:55;100220.56;;;14.09;100.00
11856;BME280;5987;53.140;8.904;2023-03-23T13:16:07;100216.22;;;13.64;100.00
11856;BME280;5987;53.140;8.904;2023-03-23T13:19:24;100206.00;;;13.44;100.00
11856;BME280;5987;53.140;8.904;2023-03-23T13:22:37;100216.91;;;13.21;100.00
11856;BME280;5987;53.140;8.904;2023-03-23T13:25:50;100221.94;;;13.10;100.00
11856;BME280;5987;53.140;8.904;2023-03-23T13:28:58;100220.63;;;13.33;100.00
11856;BME280;5987;53.140;8.904;2023-03-23T13:32:15;100225.72;;;13.20;100.00
11856;BME280;5987;53.140;8.904;2023-03-23T13:35:20;100221.44;;;13.19;100.00
11856;BME280;5987;53.140;8.904;2023-03-23T13:38:26;100223.03;;;13.22;100.00
11856;BME280;5987;53.140;8.904;2023-03-23T13:41:30;100228.00;;;12.96;100.00
11856;BME280;5987;53.140;8.904;2023-03-23T13:44:54;100222.56;;;12.83;100.00
11856;BME280;5987;53.140;8.904;2023-03-23T13:48:23;100223.59;;;12.65;100.00
11856;BME280;5987;53.140;8.904;2023-03-23T13:51:46;100216.47;;;12.35;100.00
11856;BME280;5987;53.140;8.904;2023-03-23T13:54:52;100234.19;;;11.80;100.00
11856;BME280;5987;53.140;8.904;2023-03-23T13:57:56;100247.34;;;11.63;100.00
11856;BME280;5987;53.140;8.904;2023-03-23T14:01:13;100269.22;;;10.92;100.00
11856;BME280;5987;53.140;8.904;2023-03-23T14:04:19;100275.19;;;10.38;100.00
11856;BME280;5987;53.140;8.904;2023-03-23T14:07:22;100267.31;;;9.97;100.00
11856;BME280;5987;53.140;8.904;2023-03-23T14:10:33;100267.19;;;9.79;100.00
11856;BME280;5987;53.140;8.904;2023-03-23T14:13:47;100288.44;;;9.73;100.00
11856;BME280;5987;53.140;8.904;2023-03-23T14:16:53;100301.09;;;9.64;100.00
11856;BME280;5987;53.140;8.904;2023-03-23T14:20:23;100313.31;;;9.63;100.00
11856;BME280;5987;53.140;8.904;2023-03-23T14:23:27;100298.50;;;9.41;100.00
11856;BME280;5987;53.140;8.904;2023-03-23T14:26:34;100265.00;;;9.27;100.00
11856;BME280;5987;53.140;8.904;2023-03-23T14:29:38;100265.59;;;9.34;100.00
11856;BME280;5987;53.140;8.904;2023-03-23T14:32:41;100259.66;;;9.92;100.00
11856;BME280;5987;53.140;8.904;2023-03-23T14:35:46;100254.09;;;10.59;100.00
11856;BME280;5987;53.140;8.904;2023-03-23T14:39:02;100254.59;;;10.86;100.00
11856;BME280;5987;53.140;8.904;2023-03-23T14:42:09;100256.09;;;10.92;100.00
11856;BME280;5987;53.140;8.904;2023-03-23T14:45:17;100253.41;;;11.11;100.00
11856;BME280;5987;53.140;8.904;2023-03-23T14:48:21;100256.47;;;11.38;100.00
11856;BME280;5987;53.140;8.904;2023-03-23T14:51:25;100274.09;;;11.36;100.00
11856;BME280;5987;53.140;8.904;2023-03-23T14:54:28;100278.91;;;11.28;100.00
11856;BME280;5987;53.140;8.904;2023-03-23T14:57:31;100282.94;;;11.53;100.00
11856;BME280;5987;53.140;8.904;2023-03-23T15:00:39;100271.50;;;11.54;100.00
11856;BME280;5987;53.140;8.904;2023-03-23T15:03:51;100268.63;;;11.58;100.00
11856;BME280;5987;53.140;8.904;2023-03-23T15:07:02;100276.19;;;11.82;100.00
11856;BME280;5987;53.140;8.904;2023-03-23T15:10:08;100271.00;;;11.63;100.00
11856;BME280;5987;53.140;8.904;2023-03-23T15:13:16;100272.25;;;11.91;100.00
11856;BME280;5987;53.140;8.904;2023-03-23T15:16:22;100267.31;;;12.02;100.00
11856;BME280;5987;53.140;8.904;2023-03-23T15:19:32;100271.31;;;11.92;100.00
11856;BME280;5987;53.140;8.904;2023-03-23T15:22:46;100271.31;;;11.92;100.00
11856;BME280;5987;53.140;8.904;2023-03-23T15:25:53;100268.38;;;12.15;100.00
11856;BME280;5987;53.140;8.904;2023-03-23T15:29:15;100273.75;;;12.30;100.00
11856;BME280;5987;53.140;8.904;2023-03-23T15:32:23;100265.59;;;12.34;100.00
11856;BME280;5987;53.140;8.904;2023-03-23T15:35:27;100263.94;;;12.33;100.00
11856;BME280;5987;53.140;8.904;2023-03-23T15:38:36;100268.28;;;12.50;100.00
11856;BME280;5987;53.140;8.904;2023-03-23T15:41:48;100255.41;;;12.28;100.00
11856;BME280;5987;53.140;8.904;2023-03-23T15:45:12;100259.97;;;12.25;100.00
11856;BME280;5987;53.140;8.904;2023-03-23T15:48:17;100268.97;;;12.21;100.00
11856;BME280;5987;53.140;8.904;2023-03-23T15:51:21;100278.03;;;12.15;100.00
11856;BME280;5987;53.140;8.904;2023-03-23T15:54:30;100282.28;;;12.17;100.00
11856;BME280;5987;53.140;8.904;2023-03-23T15:57:34;100278.56;;;12.22;100.00
11856;BME280;5987;53.140;8.904;2023-03-23T16:00:37;100272.75;;;12.32;100.00
11856;BME280;5987;53.140;8.904;2023-03-23T16:03:46;100274.22;;;12.38;100.00
11856;BME280;5987;53.140;8.904;2023-03-23T16:06:56;100262.56;;;12.42;100.00
11856;BME280;5987;53.140;8.904;2023-03-23T16:10:01;100264.03;;;12.64;100.00
11856;BME280;5987;53.140;8.904;2023-03-23T16:13:05;100263.38;;;12.60;100.00
11856;BME280;5987;53.140;8.904;2023-03-23T16:16:15;100244.81;;;12.46;100.00
11856;BME280;5987;53.140;8.904;2023-03-23T16:19:19;100227.91;;;12.34;100.00
11856;BME280;5987;53.140;8.904;2023-03-23T16:22:25;100220.00;;;12.18;100.00
11856;BME280;5987;53.140;8.904;2023-03-23T16:25:30;100231.84;;;12.09;100.00
11856;BME280;5987;53.140;8.904;2023-03-23T16:28:34;100228.16;;;11.96;100.00